• Join FlightAware (Why Join?)
  • Login
  • US Flag 
12:02PM EDT


 

Airport Tracker/Info


-or-


 

Live Flight TrackerFlight Track Log ✈ N87CA ✈ 07-May-2013 ✈ KATL - KBGE

Flight Track Log - Related Links

Times and Time Zones

All times are in EDT time to prevent confusion due to time zone crossing. See the N87CA flight status page for this flight to view local times or setup timezone preferences in your user account.

Time Position Orientation Groundspeed Altitude Reporting Facility
EDT Latitude Longitude Course Direction KTS MPH feet Rate Location/Type
10:03AM 33.3833 -84.5000 184° South 205 236 5,900  Level Atlanta TRACON
10:04AM 33.3333 -84.5000 180° South 205 236 5,900  Level Atlanta TRACON
10:05AM 33.2667 -84.5000 180° South 204 235 5,900  Level Atlanta TRACON
10:06AM 33.2000 -84.5167 192° South 200 230 6,000 300 Climbing Atlanta TRACON
10:07AM 33.1500 -84.5167 180° South 190 219 6,500 540 Climbing Atlanta TRACON
10:08AM 33.1425 -84.4676 184° South  Level Estimated
10:08AM 33.1000 -84.5167 180° South 187 215 7,100  Level Atlanta TRACON
10:09AM 33.0500 -84.5167 180° South 185 213 7,900 420 Climbing Atlanta TRACON
10:10AM 33.0000 -84.5167 180° South 198 228 8,000  Climbing Atlanta TRACON
10:11AM 32.9333 -84.5333 192° South 200 230 7,900 -60 Descending Atlanta TRACON
10:12AM 32.8833 -84.5333 180° South 202 232 7,900  Level Atlanta TRACON
10:13AM 32.8167 -84.5333 180° South 202 232 7,900  Level Atlanta TRACON
10:14AM 32.7667 -84.5333 180° South 201 231 8,000  Climbing Atlanta TRACON
10:15AM 32.7000 -84.5333 180° South 199 229 8,000 -60 Level Atlanta TRACON
10:16AM 32.6500 -84.5500 196° South 197 227 7,900 -60 Descending Atlanta TRACON
10:17AM 32.5833 -84.5500 180° South 201 231 7,900  Level Atlanta TRACON
10:18AM 32.5333 -84.5500 180° South 203 234 8,000  Climbing Atlanta TRACON
10:19AM 32.4667 -84.5500 180° South 202 232 7,900 -60 Descending Atlanta TRACON
10:20AM 32.4167 -84.5500 180° South 204 235 7,900  Level Atlanta TRACON
10:21AM 32.3500 -84.5667 192° South 204 235 7,900  Level Atlanta TRACON
10:22AM 32.3000 -84.5667 180° South 202 232 7,900  Level Atlanta TRACON
10:23AM 32.2333 -84.5667 180° South 200 230 7,900  Level Atlanta TRACON
10:24AM 32.1972 -84.5669 180° South 211 243 8,000  Climbing Jacksonville Center
10:25AM 32.1472 -84.5683 181° South 211 243 7,900 -60 Descending Jacksonville Center
10:26AM 32.0886 -84.5747 185° South 211 243 7,900  Level Jacksonville Center
10:27AM 32.0300 -84.5786 183° South 211 243 7,900  Level Jacksonville Center
10:28AM 31.9758 -84.5800 181° South 211 243 7,900  Level Jacksonville Center
10:29AM 31.9194 -84.5814 181° South 211 243 7,900  Level Jacksonville Center
10:30AM 31.8608 -84.5853 183° South 211 243 8,000  Climbing Jacksonville Center
10:31AM 31.8022 -84.5892 183° South 216 249 8,000 -60 Level Jacksonville Center
10:32AM 31.7481 -84.5931 183° South 216 249 7,900 -180 Descending Jacksonville Center
10:33AM 31.6894 -84.5944 181° South 216 249 7,700 -420 Descending Jacksonville Center
10:34AM 31.6289 -84.5981 183° South 216 249 7,100 -660 Descending Jacksonville Center
10:35AM 31.5661 -84.6042 185° South 216 249 6,400 -660 Descending Jacksonville Center
10:36AM 31.5078 -84.6081 183° South 216 249 5,800 -540 Descending Jacksonville Center
10:37AM 31.4533 -84.6094 181° South 211 243 5,400 -540 Descending Jacksonville Center
10:38AM 31.4011 -84.6133 184° South 205 236 4,800 -600 Descending Jacksonville Center
10:39AM 31.3489 -84.6150 182° South 198 228 4,300 -540 Descending Jacksonville Center
10:40AM 31.2967 -84.6164 181° South 193 222 3,800 -600 Descending Jacksonville Center
10:41AM 31.2467 -84.6203 184° South 193 222 3,200 -420 Descending Jacksonville Center
10:42AM 31.1964 -84.6242 184° South 193 222 3,000 -120 Descending Jacksonville Center
10:43AM 31.1547 -84.6258 182° South 181 208 3,000  Level Jacksonville Center
10:44AM 31.1108 -84.6275 182° South 168 193 3,000 -300 Level Jacksonville Center
10:45AM 31.0736 -84.6025 150° Southeast 155 178 2,500 -540 Descending Jacksonville Center